Řízení letového provozu České republiky
Letiste: LKPR Aktualizace: 23.08.2017 08:05:07  UTC
 METAR LKPR 23.08. 08:00 ...
METAR LKPR 230800Z 26003KT 180V330 9999 FEW035 15/07 Q1020 NOSIG=
 TAF LKPR 23.08. 05:00 ...
TAF LKPR 230500Z 2306/2412 21003KT CAVOK      BECMG 2310/2312 07005KT      BECMG 2318/2320 14003KT      BECMG 2409/2411 31005KT=